North Garden, VA (22959)

10:26 AM EST on February 14, 2016 (GMT -0500)
Fan Mountain Observatory | | Change Station
CLOSE
Current Station
Personal Weather Station
Location: Covesville, VA
Elevation: 1788 ft
Nearby Weather Stations
Active Advisory: Winter Storm Warning

Elev 1788 ft 37.88 °N, 78.69 °W | Updated 25 seconds ago

Clear
Clear
11.8 °F
Feels Like 12 °F
N
3.0
Wind Variable Wind from NNW
Gusts 8.0 mph

Today
High -- | Low -- °F
--% Chance of Precip.
Yesterday
High -- | Low -- °F
Precip. -- in
Pressure 30.56 in
Visibility 10.0 miles
Clouds Clear
Windchill 12 °F
Dew Point -3 °F
Humidity 51%
Rainfall 0.00 in
Snow Depth Not available.
7:06 AM 5:52 PM
Waxing Crescent, 42% visible
METAR KCHO 141453Z 04005KT 10SM CLR M08/M19 A3053 RMK AO2 SLP349 T10781189 51007
Pressure 30.56 in
Visibility 10.0 miles
Clouds Clear
Windchill 12 °F
Dew Point -3 °F
Humidity 51%
Rainfall 0.00 in
Snow Depth Not available.
7:06 AM 5:52 PM
Waxing Crescent, 42% visible
METAR KCHO 141453Z 04005KT 10SM CLR M08/M19 A3053 RMK AO2 SLP349 T10781189 51007

10-Day Weather Forecast

Almanac

Astronomy

Feb. 14, 2016 Rise Set
Actual Time
Civil Twilight
Nautical Twilight
Astronomical Twilight
Moon
Length of Visible Light
Length of Day
Tomorrow will be .
, % of the Moon is Illuminated

Today's Extremes

State Highs State Lows

Community

WunderPhotos

Upload Photos

1,892,791 photos uploaded!

WunderBlog® & News

Nearby

Air Quality

  Air Quality AQ Index Pollutant
Not available.

Snow Depth

Station Depth Elevation

Earthquake Activity

City Distance Mag. Time & Date
Minimum magnitude displayed is 2.5.

Coastal Water Temperatures

Place Temperature

Stations

Nearby Weather Stations

Station Location Temp. Windchill Dew Point Humidity Wind Precip. Elev Updated Type
                   

Watches & Warnings

Winter Storm Warning
Issued: 8:27 AM EST Feb. 14, 2016 – National Weather Service

... Winter Storm Warning remains in effect from 9 PM this evening
to 10 am EST Tuesday...
... Wind Chill Advisory is cancelled...

The National Weather Service in Baltimore MD/Washington has
cancelled the Wind Chill Advisory.

* Precipitation type... snow... sleet and freezing rain Sunday
night through Tuesday morning.

* Accumulation... 4 to 8 inches of snow and sleet. Up to a
quarter inch of ice from freezing rain.

* Timing... snow will begin by midnight. Snow will continue
through Monday before changing to sleet and freezing rain Monday
night. Precipitation will end Tuesday afternoon.

* Winds... southeast around 5 to 10 mph.

* Temperatures..in the teens tonight... rising into the upper 20s
and lower 30s Monday into Tuesday.

* Impacts... snow and ice will cause slippery roads and travel
will be difficult.

Precautionary/preparedness actions...

A Winter Storm Warning means significant amounts of snow...
sleet... and ice are expected or occurring. Strong winds are also
possible. This will make travel very hazardous or impossible.